Welcome to our new website - Change to new (Cheaper) Web Site Hosters is complete now I think everything is working
Been testing a few things and hope to rearrange the menus in the next week or two


Porch more information Porch


Driveway more information Driveway


Fitzroy Storm Glass more information Fitzroy Storm Glass


Visit our other Web Sites:

Tokoroa Info
Shinning a light on Tokoroa



Nearby METAR Reports

   
YSSY - Sydney
Updated: 14-12-2017 18:30
Clear  
Clear  
   Wind: NE 48.2 km/h
Wind: NE 48.2 km/h
Temperature: 32°C
Dew Point: 16°C
Humidity: 38%
Barometer: 1004 hPa
Visibility: More than 10 km
Cloud details: Clear
YSSY 140530Z 05026KT CAVOK 32/16 Q1004 NOSIG
YBBN - Brisbane
Updated: 14-12-2017 18:30
Few Clouds  
Few Clouds  
   Wind: NE 22.2 km/h
Wind: NE 22.2 km/h
Temperature: 27°C
Heat Index: 28°C
Dew Point: 18°C
Humidity: 58%
Barometer: 1010 hPa
Clouds: Few Clouds
Visibility: More than 10 km
Cloud details: Few Clouds 3700 ft
YBBN 140530Z 05012KT 9999 FEW037 27/18 Q1010 NOSIG
YPPH - Perth
Updated: 14-12-2017 18:30
Clear  
Clear  
   Wind: West 25.9 km/h
Wind: West 25.9 km/h
Temperature: 27°C
Dew Point: 12°C
Humidity: 39%
Barometer: 1014 hPa
Visibility: More than 10 km
Cloud details: Clear
YPPH 140530Z 27014KT CAVOK 27/12 Q1014 FM0600 23018KT CAVOK
NZCH - Christchurch
Updated: 14-12-2017 18:30
Clear  
Clear  
   Wind: ENE 38.9 km/h
Wind: ENE 38.9 km/h
Temperature: 18°C
Dew Point: 10°C
Humidity: 60%
Barometer: 1014 hPa
Clouds: Clear
Visibility: More than 10 km
Cloud details: Clear
NZCH 140530Z AUTO 07021KT 9999 NCD 18/10 Q1014 NOSIG
  

Script developed by  Saratoga-weather.org Adapted for the template by  Weerstation Leuven